createdAt,value
2023-03-17T00:00:35.845Z,26.04
2023-03-17T00:01:35.812Z,26.02
2023-03-17T00:02:35.849Z,26.04
2023-03-17T00:03:35.815Z,26.07
2023-03-17T00:06:35.763Z,26.06
2023-03-17T00:07:35.752Z,26.07
2023-03-17T00:08:35.745Z,26.11
2023-03-17T00:09:35.725Z,26.04
2023-03-17T00:10:35.723Z,25.76
2023-03-17T00:11:35.716Z,25.92
2023-03-17T00:13:35.682Z,25.99
2023-03-17T00:14:35.673Z,25.98
2023-03-17T00:16:35.676Z,25.97
2023-03-17T00:17:35.641Z,25.99
2023-03-17T00:18:35.626Z,26.04
2023-03-17T00:19:35.617Z,26.03
2023-03-17T00:20:35.608Z,26.04
2023-03-17T00:21:35.604Z,26.01
2023-03-17T00:22:35.590Z,26.01
2023-03-17T00:23:35.572Z,26.05
2023-03-17T00:30:35.500Z,25.84
2023-03-17T00:31:35.522Z,25.95
2023-03-17T00:32:35.534Z,26.00
2023-03-17T00:33:35.465Z,25.99
2023-03-17T00:34:35.453Z,26.02
2023-03-17T00:35:35.485Z,26.03
2023-03-17T00:36:35.441Z,26.03
2023-03-17T00:37:35.422Z,26.01
2023-03-17T00:38:35.411Z,26.14
2023-03-17T00:39:35.401Z,26.04
2023-03-17T00:40:35.388Z,26.09
2023-03-17T00:41:35.374Z,26.14
2023-03-17T00:42:35.370Z,26.08
2023-03-17T00:43:35.352Z,25.75
2023-03-17T00:46:35.487Z,25.85
2023-03-17T00:47:35.308Z,25.61
2023-03-17T00:48:35.317Z,25.84
2023-03-17T00:49:35.290Z,25.99
2023-03-17T00:50:35.277Z,26.02
2023-03-17T00:53:35.243Z,25.89
2023-03-17T00:54:35.232Z,26.00
2023-03-17T00:55:35.222Z,26.06
2023-03-17T00:56:35.215Z,26.04
2023-03-17T00:57:35.206Z,25.78
2023-03-17T00:58:35.200Z,25.95
2023-03-17T00:59:35.181Z,25.94
2023-03-17T01:02:35.145Z,26.03
2023-03-17T01:03:35.133Z,26.06
2023-03-17T01:04:35.153Z,26.07
2023-03-17T01:05:35.129Z,26.06
2023-03-17T01:06:35.101Z,26.11
2023-03-17T01:07:35.097Z,26.26
2023-03-17T01:08:35.081Z,26.15
2023-03-17T01:09:35.068Z,26.06
2023-03-17T01:10:35.063Z,25.77
2023-03-17T01:11:35.053Z,25.93
2023-03-17T01:13:35.024Z,26.00
2023-03-17T01:15:35.001Z,26.04
2023-03-17T01:17:34.981Z,26.03
2023-03-17T01:19:34.958Z,26.02
2023-03-17T01:21:34.936Z,26.11
2023-03-17T01:22:34.927Z,26.09
2023-03-17T01:23:34.924Z,26.07
2023-03-17T01:24:34.906Z,26.09
2023-03-17T01:25:34.908Z,26.09
2023-03-17T01:26:34.891Z,26.04
2023-03-17T01:28:34.884Z,26.24
2023-03-17T01:29:34.870Z,25.79
2023-03-17T01:30:34.852Z,25.97
2023-03-17T01:31:34.865Z,26.00
2023-03-17T01:32:34.851Z,25.75
2023-03-17T01:33:34.807Z,25.99
2023-03-17T01:34:34.796Z,26.11
2023-03-17T01:35:34.846Z,26.25
2023-03-17T01:36:34.815Z,26.12
2023-03-17T01:37:34.763Z,26.29
2023-03-17T01:38:34.755Z,26.36
2023-03-17T01:39:34.743Z,26.19
2023-03-17T01:40:34.734Z,26.20
2023-03-17T01:41:34.735Z,25.82
2023-03-17T01:42:34.712Z,26.00
2023-03-17T01:43:34.701Z,25.97
2023-03-17T01:44:34.693Z,26.04
2023-03-17T01:45:34.703Z,26.03
2023-03-17T01:48:34.648Z,26.09
2023-03-17T01:50:34.624Z,26.12
2023-03-17T01:51:34.610Z,26.10
2023-03-17T01:52:34.645Z,26.26
2023-03-17T01:53:34.596Z,26.10
2023-03-17T01:56:34.557Z,26.06
2023-03-17T01:58:34.550Z,26.05
2023-03-17T02:00:34.517Z,26.24
2023-03-17T02:01:34.502Z,25.81
2023-03-17T02:02:34.494Z,26.21
2023-03-17T02:03:34.480Z,26.28
2023-03-17T02:04:34.514Z,25.83
2023-03-17T02:06:35.843Z,26.17
2023-03-17T02:07:34.460Z,26.11
2023-03-17T02:08:34.455Z,26.09
2023-03-17T02:09:34.429Z,25.88
2023-03-17T02:12:34.381Z,26.03
2023-03-17T02:13:34.369Z,26.10
2023-03-17T02:14:34.360Z,26.01
2023-03-17T02:15:34.345Z,25.80
2023-03-17T02:16:34.392Z,25.96
2023-03-17T02:17:34.324Z,26.14
2023-03-17T02:18:34.331Z,26.06
2023-03-17T02:19:34.366Z,26.07
2023-03-17T02:20:34.298Z,25.76
2023-03-17T02:21:34.326Z,25.93
2023-03-17T02:22:34.268Z,25.98
2023-03-17T02:23:34.289Z,25.95
2023-03-17T02:24:34.302Z,26.06
2023-03-17T02:25:34.236Z,26.06
2023-03-17T02:27:34.222Z,26.11
2023-03-17T02:28:34.205Z,26.05
2023-03-17T02:29:34.190Z,26.06
2023-03-17T02:30:34.273Z,25.78
2023-03-17T02:31:34.174Z,25.96
2023-03-17T02:32:34.272Z,25.97
2023-03-17T02:33:34.151Z,26.01
2023-03-17T02:34:34.146Z,25.99
2023-03-17T02:35:34.207Z,25.75
2023-03-17T02:36:34.125Z,25.89
2023-03-17T02:37:34.112Z,25.97
2023-03-17T02:38:34.104Z,26.05
2023-03-17T02:39:34.086Z,25.71
2023-03-17T02:40:34.104Z,25.72
2023-03-17T02:41:34.064Z,25.88
2023-03-17T02:42:34.056Z,25.64
2023-03-17T02:43:34.044Z,25.86
2023-03-17T02:44:34.034Z,26.10
2023-03-17T02:45:34.021Z,25.71
2023-03-17T02:46:34.020Z,26.00
2023-03-17T02:47:34.001Z,26.00
2023-03-17T02:48:33.993Z,25.67
2023-03-17T02:49:33.981Z,25.89
2023-03-17T02:50:33.977Z,25.63
2023-03-17T02:51:33.965Z,25.61
2023-03-17T02:52:33.952Z,25.78
2023-03-17T02:53:33.942Z,25.91
2023-03-17T02:58:33.883Z,26.06
2023-03-17T02:59:33.872Z,26.08
2023-03-17T03:00:33.863Z,26.09
2023-03-17T03:01:33.935Z,26.06
2023-03-17T03:02:33.965Z,26.03
2023-03-17T03:03:33.828Z,26.07
2023-03-17T03:04:33.831Z,25.73
2023-03-17T03:05:33.804Z,25.92
2023-03-17T03:06:33.795Z,25.92
2023-03-17T03:07:33.783Z,25.96
2023-03-17T03:08:33.774Z,25.97
2023-03-17T03:09:33.760Z,25.98
2023-03-17T03:10:33.749Z,26.01
2023-03-17T03:11:33.737Z,25.75
2023-03-17T03:12:33.769Z,25.67
2023-03-17T03:13:33.716Z,25.60
2023-03-17T03:14:33.708Z,25.81
2023-03-17T03:15:33.754Z,25.95
2023-03-17T03:17:33.683Z,26.03
2023-03-17T03:19:33.657Z,25.61
2023-03-17T03:20:33.641Z,25.76
2023-03-17T03:21:33.628Z,25.90
2023-03-17T03:22:33.616Z,25.98
2023-03-17T03:24:33.598Z,26.06
2023-03-17T03:25:33.588Z,26.03
2023-03-17T03:26:33.575Z,26.10
2023-03-17T03:27:33.562Z,26.06
2023-03-17T03:28:33.584Z,25.79
2023-03-17T03:29:33.546Z,25.96
2023-03-17T03:30:33.537Z,26.03
2023-03-17T03:31:33.521Z,26.00
2023-03-17T03:32:33.558Z,26.05
2023-03-17T03:33:33.500Z,26.07
2023-03-17T03:34:33.493Z,26.11
2023-03-17T03:35:33.545Z,26.07
2023-03-17T03:36:33.469Z,26.06
2023-03-17T03:37:33.457Z,26.03
2023-03-17T03:38:33.448Z,26.04
2023-03-17T03:39:33.447Z,26.04
2023-03-17T03:40:33.428Z,26.07
2023-03-17T03:44:33.416Z,25.75
2023-03-17T03:45:33.368Z,26.21
2023-03-17T03:46:33.361Z,26.05
2023-03-17T03:47:33.346Z,26.10
2023-03-17T03:48:33.344Z,26.12
2023-03-17T03:49:33.326Z,26.11
2023-03-17T03:50:33.316Z,25.81
2023-03-17T03:51:33.301Z,26.11
2023-03-17T03:52:33.297Z,26.24
2023-03-17T03:53:33.282Z,26.09
2023-03-17T03:54:33.270Z,26.07
2023-03-17T03:55:33.255Z,26.28
2023-03-17T03:56:33.251Z,26.13
2023-03-17T03:57:33.234Z,26.11
2023-03-17T03:58:33.223Z,25.73
2023-03-17T03:59:33.216Z,26.11
2023-03-17T04:00:33.383Z,26.04
2023-03-17T04:02:33.232Z,26.13
2023-03-17T04:03:33.173Z,26.10
2023-03-17T04:04:33.207Z,26.08
2023-03-17T04:05:33.153Z,26.09
2023-03-17T04:06:33.140Z,25.74
2023-03-17T04:07:33.128Z,25.93
2023-03-17T04:08:33.121Z,26.01
2023-03-17T04:09:33.107Z,25.74
2023-03-17T04:10:33.193Z,25.91
2023-03-17T04:11:33.089Z,25.98
2023-03-17T04:12:33.072Z,26.00
2023-03-17T04:13:33.063Z,25.96
2023-03-17T04:14:33.049Z,25.72
2023-03-17T04:15:33.042Z,25.89
2023-03-17T04:16:33.169Z,25.94
2023-03-17T04:22:32.965Z,26.05
2023-03-17T04:24:32.941Z,25.92
2023-03-17T04:29:32.889Z,25.63
2023-03-17T04:30:33.255Z,25.87
2023-03-17T04:38:32.789Z,25.73
2023-03-17T04:39:32.779Z,25.63
2023-03-17T04:40:32.992Z,25.85
2023-03-17T04:41:32.757Z,25.88
2023-03-17T04:42:32.744Z,25.69
2023-03-17T04:43:32.733Z,25.87
2023-03-17T04:44:32.722Z,25.93
2023-03-17T04:45:32.737Z,26.17
2023-03-17T04:51:32.647Z,26.03
2023-03-17T04:52:32.637Z,26.03
2023-03-17T04:53:32.642Z,26.20
2023-03-17T04:54:32.616Z,26.12
2023-03-17T04:55:32.606Z,26.12
2023-03-17T04:57:32.587Z,26.10
2023-03-17T04:58:32.569Z,26.28
2023-03-17T04:59:32.565Z,26.11
2023-03-17T05:00:32.795Z,26.11
2023-03-17T05:01:32.539Z,26.16
2023-03-17T05:02:32.603Z,26.06
2023-03-17T05:03:32.519Z,26.04
2023-03-17T05:04:32.597Z,26.26
2023-03-17T05:05:32.496Z,26.12
2023-03-17T05:06:32.486Z,26.08
2023-03-17T05:07:34.125Z,26.31
2023-03-17T05:08:32.462Z,26.17
2023-03-17T05:09:32.453Z,26.13
2023-03-17T05:10:32.857Z,26.07
2023-03-17T05:11:32.452Z,26.07
2023-03-17T05:12:32.422Z,26.08
2023-03-17T05:13:32.416Z,26.14
2023-03-17T05:14:32.398Z,26.03
2023-03-17T05:15:32.388Z,26.06
2023-03-17T05:16:32.449Z,26.07
2023-03-17T05:17:32.368Z,26.03
2023-03-17T05:18:32.354Z,26.07
2023-03-17T05:19:32.349Z,25.73
2023-03-17T05:20:32.770Z,25.97
2023-03-17T05:21:32.326Z,25.97
2023-03-17T05:22:32.312Z,25.68
2023-03-17T05:23:32.307Z,26.05
2023-03-17T05:24:32.293Z,26.17
2023-03-17T05:25:32.281Z,25.77
2023-03-17T05:26:32.270Z,25.68
2023-03-17T05:27:32.261Z,25.63
2023-03-17T05:28:32.262Z,25.55
2023-03-17T05:29:32.241Z,25.84
2023-03-17T05:30:32.600Z,25.87
2023-03-17T05:31:32.219Z,25.98
2023-03-17T05:32:32.295Z,25.99
2023-03-17T05:33:32.199Z,25.99
2023-03-17T05:34:32.198Z,25.75
2023-03-17T05:35:32.194Z,26.13
2023-03-17T05:37:32.159Z,26.01
2023-03-17T05:38:32.142Z,25.97
2023-03-17T05:40:32.392Z,25.70
2023-03-17T05:41:32.114Z,26.11
2023-03-17T05:42:32.109Z,25.98
2023-03-17T05:45:32.064Z,26.10
2023-03-17T05:46:32.184Z,26.11
2023-03-17T05:47:32.048Z,26.02
2023-03-17T05:48:32.032Z,26.05
2023-03-17T05:49:32.024Z,26.28
2023-03-17T05:50:32.295Z,26.13
2023-03-17T05:51:32.014Z,26.14
2023-03-17T05:52:32.007Z,25.85
2023-03-17T05:53:31.979Z,26.05
2023-03-17T05:54:31.965Z,26.23
2023-03-17T05:55:31.956Z,25.97
2023-03-17T05:57:31.939Z,26.03
2023-03-17T05:58:31.926Z,26.10
2023-03-17T05:59:31.921Z,26.11
2023-03-17T06:00:32.354Z,26.10
2023-03-17T06:01:31.893Z,26.08
2023-03-17T06:02:31.942Z,26.06
2023-03-17T06:03:32.003Z,26.24
2023-03-17T06:04:31.860Z,26.09
2023-03-17T06:05:31.846Z,26.09
2023-03-17T06:06:31.834Z,26.26
2023-03-17T06:07:44.574Z,26.18
2023-03-17T06:08:31.838Z,26.15
2023-03-17T06:10:32.167Z,25.90
2023-03-17T06:11:31.782Z,25.97
2023-03-17T06:12:31.769Z,26.05
2023-03-17T06:13:31.774Z,26.03
2023-03-17T06:14:31.747Z,26.07
2023-03-17T06:15:32.076Z,25.76
2023-03-17T06:16:31.732Z,25.98
2023-03-17T06:17:31.721Z,25.95
2023-03-17T06:18:31.703Z,26.03
2023-03-17T06:19:31.695Z,26.05
2023-03-17T06:20:31.683Z,25.99
2023-03-17T06:22:31.659Z,25.97
2023-03-17T06:23:31.659Z,26.15
2023-03-17T06:24:31.664Z,26.04
2023-03-17T06:25:32.098Z,26.03
2023-03-17T06:26:31.616Z,26.07
2023-03-17T06:28:31.594Z,25.73
2023-03-17T06:29:31.582Z,25.85
2023-03-17T06:31:31.587Z,25.98
2023-03-17T06:32:31.591Z,25.66
2023-03-17T06:33:31.541Z,25.91
2023-03-17T06:34:31.534Z,25.93
2023-03-17T06:35:31.971Z,25.96
2023-03-17T06:36:31.504Z,25.97
2023-03-17T06:37:31.496Z,25.98
2023-03-17T06:38:31.481Z,26.17
2023-03-17T06:39:31.473Z,26.10
2023-03-17T06:40:31.479Z,26.06
2023-03-17T06:41:31.450Z,26.06
2023-03-17T06:42:31.456Z,26.08
2023-03-17T06:43:31.438Z,25.76
2023-03-17T06:44:31.417Z,25.66
2023-03-17T06:45:31.720Z,25.87
2023-03-17T06:47:31.407Z,25.94
2023-03-17T06:48:31.381Z,25.69
2023-03-17T06:49:31.363Z,25.56
2023-03-17T06:50:31.351Z,25.56
2023-03-17T06:51:31.342Z,25.48
2023-03-17T06:52:31.329Z,25.51
2023-03-17T06:53:31.321Z,25.74
2023-03-17T06:54:31.308Z,25.53
2023-03-17T06:55:31.464Z,25.74
2023-03-17T06:56:31.304Z,25.64
2023-03-17T06:58:31.277Z,25.90
2023-03-17T06:59:31.259Z,25.88
2023-03-17T07:02:31.221Z,25.77
2023-03-17T07:03:31.211Z,25.88
2023-03-17T07:04:31.298Z,25.62
2023-03-17T07:05:31.439Z,25.66
2023-03-17T07:06:31.188Z,25.55
2023-03-17T07:07:31.173Z,25.74
2023-03-17T07:08:31.205Z,25.81
2023-03-17T07:09:31.152Z,25.91
2023-03-17T07:10:31.231Z,25.91
2023-03-17T07:11:31.143Z,25.98
2023-03-17T07:12:31.156Z,26.03
2023-03-17T07:13:31.100Z,26.00
2023-03-17T07:14:31.097Z,26.21
2023-03-17T07:15:31.324Z,26.12
2023-03-17T07:16:31.137Z,26.07
2023-03-17T07:17:31.064Z,26.09
2023-03-17T07:18:31.046Z,26.12
2023-03-17T07:19:31.040Z,26.05
2023-03-17T07:20:31.065Z,26.06
2023-03-17T07:22:31.000Z,25.73
2023-03-17T07:24:30.982Z,25.84
2023-03-17T07:25:31.349Z,25.94
2023-03-17T07:27:30.947Z,26.03
2023-03-17T07:28:30.965Z,26.00
2023-03-17T07:35:31.089Z,25.96
2023-03-17T07:36:30.846Z,25.92
2023-03-17T07:41:30.812Z,25.56
2023-03-17T07:47:30.744Z,25.62
2023-03-17T07:48:30.717Z,25.57
2023-03-17T07:49:40.794Z,25.84
2023-03-17T07:50:30.691Z,25.93
2023-03-17T07:51:30.694Z,25.73
2023-03-17T07:52:30.675Z,25.57
2023-03-17T07:53:30.660Z,25.81
2023-03-17T07:54:30.646Z,25.86
2023-03-17T07:55:30.871Z,25.68
2023-03-17T07:56:30.647Z,25.92
2023-03-17T07:57:30.651Z,25.67
2023-03-17T07:58:30.601Z,25.60
2023-03-17T07:59:30.594Z,25.84
2023-03-17T08:00:31.030Z,25.61
2023-03-17T08:01:30.608Z,25.60
2023-03-17T08:02:30.565Z,25.55
2023-03-17T08:07:30.513Z,25.57
2023-03-17T08:08:30.490Z,25.55
2023-03-17T08:09:30.520Z,25.50
2023-03-17T08:10:30.918Z,25.51
2023-03-17T08:11:30.461Z,25.45
2023-03-17T08:12:30.448Z,25.49
2023-03-17T08:13:30.440Z,25.49
2023-03-17T08:14:30.455Z,25.53
2023-03-17T08:15:30.420Z,25.81
2023-03-17T08:16:30.505Z,25.58
2023-03-17T08:17:30.427Z,25.56
2023-03-17T08:18:30.422Z,25.51
2023-03-17T08:19:30.417Z,25.78
2023-03-17T08:22:30.346Z,26.02
2023-03-17T08:23:30.332Z,26.07
2023-03-17T08:24:30.319Z,25.78
2023-03-17T08:25:30.311Z,25.99
2023-03-17T08:27:32.537Z,25.60
2023-03-17T08:28:30.365Z,25.86
2023-03-17T08:29:30.266Z,25.88
2023-03-17T08:30:33.254Z,25.96
2023-03-17T08:31:30.385Z,25.96
2023-03-17T08:32:30.366Z,25.73
2023-03-17T08:33:30.223Z,25.95
2023-03-17T08:40:30.612Z,26.02
2023-03-17T08:42:30.122Z,26.01
2023-03-17T08:43:30.116Z,25.68
2023-03-17T08:44:30.103Z,25.92
2023-03-17T08:45:30.341Z,25.65
2023-03-17T08:46:30.146Z,25.89
2023-03-17T08:47:30.068Z,25.95
2023-03-17T08:48:30.077Z,26.18
2023-03-17T08:49:30.048Z,26.07
2023-03-17T08:50:30.331Z,26.08
2023-03-17T08:51:30.023Z,26.06
2023-03-17T08:52:30.016Z,26.03
2023-03-17T08:54:29.993Z,26.11
2023-03-17T08:59:29.940Z,25.91
2023-03-17T09:01:29.960Z,25.68
2023-03-17T09:02:29.953Z,25.93
2023-03-17T09:03:29.894Z,25.62
2023-03-17T09:04:29.915Z,25.89
2023-03-17T09:05:30.314Z,25.68
2023-03-17T09:06:29.868Z,25.60
2023-03-17T09:07:29.886Z,25.89
2023-03-17T09:09:29.834Z,26.00
2023-03-17T09:10:30.391Z,26.01
2023-03-17T09:11:29.831Z,26.03
2023-03-17T09:12:29.798Z,26.06
2023-03-17T09:13:29.785Z,26.05
2023-03-17T09:14:35.277Z,26.05
2023-03-17T09:15:30.013Z,25.78
2023-03-17T09:16:29.861Z,26.20
2023-03-17T09:17:29.742Z,25.76
2023-03-17T09:18:29.731Z,25.65
2023-03-17T09:19:29.723Z,25.60
2023-03-17T09:20:30.174Z,25.53
2023-03-17T09:21:29.695Z,25.80
2023-03-17T09:22:29.731Z,25.82
2023-03-17T09:23:29.699Z,25.66
2023-03-17T09:24:29.710Z,25.85
2023-03-17T09:26:29.686Z,25.57
2023-03-17T09:27:29.641Z,25.57
2023-03-17T09:28:29.629Z,25.81
2023-03-17T09:29:29.614Z,25.54
2023-03-17T09:31:29.652Z,25.85
2023-03-17T09:32:29.614Z,25.67
2023-03-17T09:33:29.565Z,25.92
2023-03-17T09:34:29.555Z,25.62
2023-03-17T09:35:29.561Z,25.61
2023-03-17T09:36:29.555Z,25.51
2023-03-17T09:37:29.523Z,25.55
2023-03-17T09:38:29.512Z,25.47
2023-03-17T09:39:29.499Z,25.82
2023-03-17T09:40:30.127Z,25.58
2023-03-17T09:41:29.475Z,25.58
2023-03-17T09:42:29.467Z,25.84
2023-03-17T09:43:29.454Z,25.95
2023-03-17T09:44:29.465Z,25.71
2023-03-17T09:45:29.431Z,25.65
2023-03-17T09:46:29.459Z,25.62
2023-03-17T09:47:29.410Z,25.59
2023-03-17T09:48:29.404Z,25.50
2023-03-17T09:49:29.389Z,25.49
2023-03-17T09:50:29.753Z,25.45
2023-03-17T09:51:29.373Z,25.46
2023-03-17T09:52:29.381Z,25.48
2023-03-17T09:53:29.345Z,25.41
2023-03-17T09:54:29.348Z,25.47
2023-03-17T09:55:29.834Z,25.45
2023-03-17T09:56:29.317Z,25.75
2023-03-17T09:57:29.317Z,25.90
2023-03-17T09:58:29.292Z,25.98
2023-03-17T09:59:29.281Z,26.19
2023-03-17T10:00:29.398Z,26.11
2023-03-17T10:01:29.299Z,26.33
2023-03-17T10:02:29.256Z,26.18
2023-03-17T10:03:29.235Z,26.35
2023-03-17T10:04:29.228Z,26.20
2023-03-17T10:05:29.727Z,26.17
2023-03-17T10:06:29.208Z,26.33
2023-03-17T10:07:29.193Z,26.19
2023-03-17T10:08:31.899Z,26.17
2023-03-17T10:09:29.197Z,26.14
2023-03-17T10:13:29.135Z,26.07
2023-03-17T10:14:29.126Z,26.09
2023-03-17T10:15:29.118Z,26.04
2023-03-17T10:16:29.162Z,26.08
2023-03-17T10:17:29.122Z,26.08
2023-03-17T10:18:29.084Z,26.28
2023-03-17T10:19:29.078Z,26.18
2023-03-17T10:20:29.079Z,26.32
2023-03-17T10:21:29.044Z,26.37
2023-03-17T10:22:29.033Z,26.23
2023-03-17T10:23:29.027Z,26.35
2023-03-17T10:26:29.006Z,26.48
2023-03-17T10:27:28.979Z,26.44
2023-03-17T10:28:28.982Z,26.28
2023-03-17T10:34:28.902Z,26.27
2023-03-17T10:35:29.340Z,26.37
2023-03-17T10:36:28.883Z,26.41
2023-03-17T10:37:28.874Z,26.22
2023-03-17T10:38:28.867Z,26.19
2023-03-17T10:40:29.273Z,26.35
2023-03-17T10:41:28.828Z,26.41
2023-03-17T10:42:28.824Z,26.43
2023-03-17T10:43:28.808Z,26.45
2023-03-17T10:45:28.797Z,26.46
2023-03-17T10:46:28.842Z,26.43
2023-03-17T10:47:28.780Z,26.46
2023-03-17T10:48:28.816Z,26.46
2023-03-17T10:49:28.741Z,26.47
2023-03-17T10:51:28.722Z,26.50
2023-03-17T10:52:28.716Z,26.72
2023-03-17T10:53:28.717Z,26.53
2023-03-17T10:54:28.705Z,26.32
2023-03-17T10:55:28.681Z,26.43
2023-03-17T10:56:28.703Z,26.44
2023-03-17T10:57:28.663Z,26.24
2023-03-17T10:58:28.657Z,26.58
2023-03-17T10:59:28.711Z,26.44
2023-03-17T11:00:28.888Z,26.45
2023-03-17T11:01:28.655Z,26.44
2023-03-17T11:02:28.609Z,26.46
2023-03-17T11:03:28.615Z,26.22
2023-03-17T11:05:28.569Z,26.43
2023-03-17T11:06:28.577Z,26.23
2023-03-17T11:08:28.540Z,26.39
2023-03-17T11:09:28.529Z,26.50
2023-03-17T11:10:28.866Z,26.47
2023-03-17T11:11:28.510Z,26.48
2023-03-17T11:12:28.541Z,26.29
2023-03-17T11:13:28.486Z,26.39
2023-03-17T11:16:28.478Z,26.40
2023-03-17T11:17:28.443Z,26.42
2023-03-17T11:18:28.435Z,26.42
2023-03-17T11:24:28.371Z,26.53
2023-03-17T11:25:28.358Z,26.48
2023-03-17T11:27:28.339Z,26.52
2023-03-17T11:28:28.356Z,26.71
2023-03-17T11:29:28.315Z,26.77
2023-03-17T11:30:28.348Z,26.64
2023-03-17T11:31:28.321Z,26.53
2023-03-17T11:32:28.386Z,26.49
2023-03-17T11:33:28.276Z,26.65
2023-03-17T11:34:28.276Z,27.05
2023-03-17T11:35:28.254Z,26.69
2023-03-17T11:36:28.242Z,26.46
2023-03-17T11:37:28.230Z,26.99
2023-03-17T11:38:28.227Z,26.80
2023-03-17T11:39:28.208Z,26.83
2023-03-17T11:40:28.197Z,26.86
2023-03-17T11:42:28.177Z,26.75
2023-03-17T11:43:28.205Z,26.80
2023-03-17T11:44:28.178Z,26.39
2023-03-17T11:45:28.146Z,26.47
2023-03-17T11:46:28.165Z,26.67
2023-03-17T11:47:28.118Z,26.76
2023-03-17T11:48:28.153Z,26.57
2023-03-17T11:49:28.102Z,26.55
2023-03-17T11:50:28.086Z,26.52
2023-03-17T11:51:28.075Z,26.48
2023-03-17T11:52:28.075Z,26.64
2023-03-17T11:53:28.061Z,26.75
2023-03-17T11:54:28.056Z,26.59
2023-03-17T11:55:28.034Z,26.69
2023-03-17T11:56:28.023Z,26.57
2023-03-17T11:57:28.022Z,26.57
2023-03-17T11:58:28.004Z,26.71
2023-03-17T11:59:27.996Z,26.76
2023-03-17T12:00:27.996Z,26.58
2023-03-17T12:01:27.967Z,26.56
2023-03-17T12:02:27.956Z,26.71
2023-03-17T12:03:28.029Z,26.54
2023-03-17T12:04:28.002Z,26.53
2023-03-17T12:05:27.923Z,26.48
2023-03-17T12:07:27.899Z,26.48
2023-03-17T12:09:27.877Z,26.51
2023-03-17T12:10:27.870Z,26.52
2023-03-17T12:11:27.854Z,26.52
2023-03-17T12:12:27.847Z,26.47
2023-03-17T12:13:27.836Z,26.48
2023-03-17T12:14:27.823Z,26.45
2023-03-17T12:15:27.843Z,26.47
2023-03-17T12:16:27.822Z,26.68
2023-03-17T12:18:27.785Z,26.81
2023-03-17T12:19:27.768Z,26.82
2023-03-17T12:20:27.764Z,26.86
2023-03-17T12:21:27.745Z,26.87
2023-03-17T12:22:27.736Z,26.86
2023-03-17T12:23:27.723Z,26.64
2023-03-17T12:24:27.714Z,26.59
2023-03-17T12:25:27.731Z,26.54
2023-03-17T12:26:27.693Z,26.52
2023-03-17T12:27:27.679Z,26.50
2023-03-17T12:28:27.671Z,26.68
2023-03-17T12:29:27.659Z,26.73
2023-03-17T12:30:27.650Z,26.81
2023-03-17T12:33:27.625Z,26.63
2023-03-17T12:34:27.605Z,26.55
2023-03-17T12:35:27.598Z,26.52
2023-03-17T12:37:27.594Z,26.48
2023-03-17T12:38:27.561Z,26.50
2023-03-17T12:39:27.550Z,26.49
2023-03-17T12:40:27.590Z,26.62
2023-03-17T12:41:27.529Z,26.69
2023-03-17T12:42:27.519Z,26.54
2023-03-17T12:43:27.507Z,26.51
2023-03-17T12:44:27.501Z,26.74
2023-03-17T12:45:27.499Z,26.59
2023-03-17T12:46:27.574Z,26.59
2023-03-17T12:47:27.464Z,26.50
2023-03-17T12:48:27.472Z,26.50
2023-03-17T12:49:27.445Z,26.52
2023-03-17T12:50:27.429Z,26.47
2023-03-17T12:55:27.384Z,26.76
2023-03-17T12:56:27.365Z,26.75
2023-03-17T12:57:27.353Z,26.83
2023-03-17T12:58:27.344Z,26.80
2023-03-17T12:59:27.334Z,26.83
2023-03-17T13:00:27.323Z,26.86
2023-03-17T13:01:27.366Z,26.85
2023-03-17T13:02:27.299Z,26.69
2023-03-17T13:03:27.349Z,26.77
2023-03-17T13:04:27.412Z,26.58
2023-03-17T13:05:27.266Z,26.72
2023-03-17T13:06:27.254Z,26.74
2023-03-17T13:11:27.250Z,26.77
2023-03-17T13:13:27.179Z,26.63
2023-03-17T13:14:27.190Z,26.74
2023-03-17T13:15:27.157Z,26.78
2023-03-17T13:16:27.194Z,26.81
2023-03-17T13:17:27.138Z,26.45
2023-03-17T13:18:27.130Z,26.71
2023-03-17T13:19:27.123Z,26.52
2023-03-17T13:20:27.124Z,26.56
2023-03-17T13:21:27.090Z,26.72
2023-03-17T13:22:27.079Z,26.57
2023-03-17T13:23:27.067Z,26.74
2023-03-17T13:24:27.056Z,26.77
2023-03-17T13:25:27.045Z,26.59
2023-03-17T13:26:27.033Z,26.75
2023-03-17T13:27:27.023Z,26.58
2023-03-17T13:28:27.011Z,26.53
2023-03-17T13:29:27.008Z,26.48
2023-03-17T13:30:27.082Z,26.49
2023-03-17T13:31:27.085Z,26.45
2023-03-17T13:32:27.066Z,26.50
2023-03-17T13:33:26.959Z,26.48
2023-03-17T13:34:26.946Z,26.69
2023-03-17T13:35:26.946Z,26.55
2023-03-17T13:36:26.944Z,26.51
2023-03-17T13:37:26.916Z,26.50
2023-03-17T13:38:26.905Z,26.43
2023-03-17T13:39:26.910Z,26.47
2023-03-17T13:40:26.888Z,26.28
2023-03-17T13:41:26.892Z,26.62
2023-03-17T13:42:26.862Z,26.68
2023-03-17T13:43:26.852Z,26.76
2023-03-17T13:44:26.839Z,26.58
2023-03-17T13:45:26.836Z,26.72
2023-03-17T13:46:26.906Z,26.54
2023-03-17T13:47:26.809Z,26.57
2023-03-17T13:48:26.797Z,26.52
2023-03-17T13:49:26.821Z,26.48
2023-03-17T13:50:26.777Z,26.43
2023-03-17T13:53:26.744Z,26.45
2023-03-17T13:54:26.742Z,26.46
2023-03-17T13:55:26.827Z,26.52
2023-03-17T13:56:26.709Z,26.49
2023-03-17T13:57:26.727Z,26.65
2023-03-17T13:59:26.679Z,26.71
2023-03-17T14:00:26.713Z,26.54
2023-03-17T14:01:26.661Z,26.53
2023-03-17T14:03:26.712Z,26.53
2023-03-17T14:04:26.630Z,26.53
2023-03-17T14:05:26.613Z,26.48
2023-03-17T14:06:26.601Z,26.48
2023-03-17T14:07:26.592Z,26.45
2023-03-17T14:08:26.601Z,26.44
2023-03-17T14:09:26.572Z,26.46
2023-03-17T14:10:26.556Z,26.46
2023-03-17T14:11:26.552Z,26.47
2023-03-17T14:12:26.538Z,26.66
2023-03-17T14:13:26.527Z,26.48
2023-03-17T14:14:32.845Z,26.51
2023-03-17T14:15:26.507Z,26.51
2023-03-17T14:18:26.475Z,26.44
2023-03-17T14:19:26.466Z,26.46
2023-03-17T14:21:26.450Z,26.55
2023-03-17T14:23:26.422Z,26.66
2023-03-17T14:24:26.445Z,26.55
2023-03-17T14:25:26.405Z,26.32
2023-03-17T14:26:26.390Z,26.35
2023-03-17T14:27:26.380Z,26.41
2023-03-17T14:28:26.360Z,26.46
2023-03-17T14:31:26.395Z,26.52
2023-03-17T14:32:26.605Z,26.47
2023-03-17T14:33:26.310Z,26.51
2023-03-17T14:34:26.297Z,26.46
2023-03-17T14:35:26.285Z,26.50
2023-03-17T14:36:26.270Z,26.48
2023-03-17T14:37:26.263Z,26.48
2023-03-17T14:38:26.257Z,26.48
2023-03-17T14:39:26.243Z,26.24
2023-03-17T14:41:26.222Z,26.59
2023-03-17T14:42:26.207Z,26.47
2023-03-17T14:43:26.210Z,26.49
2023-03-17T14:44:26.186Z,26.26
2023-03-17T14:45:26.175Z,26.46
2023-03-17T14:46:26.258Z,26.46
2023-03-17T14:47:26.153Z,26.47
2023-03-17T14:48:26.143Z,26.47
2023-03-17T14:49:26.155Z,26.50
2023-03-17T14:50:26.120Z,26.51
2023-03-17T14:51:26.116Z,26.44
2023-03-17T14:52:26.098Z,26.44
2023-03-17T14:53:26.090Z,26.43
2023-03-17T14:54:26.075Z,26.48
2023-03-17T14:55:26.068Z,26.50
2023-03-17T14:56:26.077Z,26.48
2023-03-17T14:57:26.049Z,26.48
2023-03-17T14:58:26.030Z,26.48
2023-03-17T15:00:26.013Z,26.24
2023-03-17T15:01:28.466Z,26.36
2023-03-17T15:02:26.031Z,26.40
2023-03-17T15:04:25.971Z,26.44
2023-03-17T15:05:25.958Z,26.48
2023-03-17T15:06:25.946Z,26.50
2023-03-17T15:07:25.936Z,26.24
2023-03-17T15:08:25.924Z,26.37
2023-03-17T15:09:25.915Z,26.37
2023-03-17T15:10:25.908Z,26.18
2023-03-17T15:11:25.895Z,26.55
2023-03-17T15:12:25.912Z,26.48
2023-03-17T15:13:25.872Z,26.30
2023-03-17T15:14:25.882Z,26.39
2023-03-17T15:15:25.854Z,26.44
2023-03-17T15:16:25.886Z,26.45
2023-03-17T15:17:25.830Z,26.46
2023-03-17T15:18:25.814Z,26.47
2023-03-17T15:19:27.656Z,26.28
2023-03-17T15:20:25.805Z,26.41
2023-03-17T15:21:25.783Z,26.42
2023-03-17T15:22:25.790Z,26.45
2023-03-17T15:23:25.771Z,26.48
2023-03-17T15:24:25.754Z,26.26
2023-03-17T15:25:28.824Z,26.24
2023-03-17T15:26:25.732Z,26.17
2023-03-17T15:27:25.719Z,26.34
2023-03-17T15:28:25.736Z,26.35
2023-03-17T15:29:25.700Z,26.20
2023-03-17T15:30:27.440Z,26.33
2023-03-17T15:31:28.424Z,26.38
2023-03-17T15:32:25.664Z,26.42
2023-03-17T15:35:25.636Z,26.43
2023-03-17T15:37:26.658Z,26.44
2023-03-17T15:38:25.603Z,26.45
2023-03-17T15:39:25.591Z,26.46
2023-03-17T15:40:25.581Z,26.47
2023-03-17T15:47:25.514Z,26.42
2023-03-17T15:48:25.521Z,26.63
2023-03-17T15:49:26.922Z,26.52
2023-03-17T15:50:25.471Z,26.49
2023-03-17T15:51:25.456Z,26.43
2023-03-17T15:52:25.445Z,26.44
2023-03-17T15:53:25.433Z,26.43
2023-03-17T15:54:25.422Z,26.45